createdAt,value
2023-08-19T00:00:09.094Z,20.39
2023-08-19T00:02:48.234Z,20.36
2023-08-19T00:05:21.898Z,20.31
2023-08-19T00:07:54.857Z,20.28
2023-08-19T00:10:27.740Z,20.23
2023-08-19T00:13:00.740Z,20.21
2023-08-19T00:15:31.696Z,20.25
2023-08-19T00:18:04.923Z,20.23
2023-08-19T00:20:35.495Z,20.18
2023-08-19T00:23:08.829Z,20.10
2023-08-19T00:25:41.598Z,19.99
2023-08-19T00:28:15.457Z,19.87
2023-08-19T00:30:49.076Z,19.80
2023-08-19T00:33:37.231Z,19.79
2023-08-19T00:36:30.179Z,19.86
2023-08-19T00:39:05.028Z,19.88
2023-08-19T00:41:38.227Z,19.93
2023-08-19T00:44:11.999Z,19.95
2023-08-19T00:46:45.658Z,19.84
2023-08-19T00:49:19.105Z,19.82
2023-08-19T00:51:52.017Z,19.81
2023-08-19T00:54:26.259Z,19.79
2023-08-19T00:56:59.994Z,19.77
2023-08-19T00:59:33.432Z,19.76
2023-08-19T01:02:07.549Z,19.81
2023-08-19T01:04:42.341Z,19.82
2023-08-19T01:07:25.746Z,19.81
2023-08-19T01:10:06.103Z,19.76
2023-08-19T01:12:45.862Z,19.76
2023-08-19T01:15:23.547Z,19.68
2023-08-19T01:17:58.570Z,19.69
2023-08-19T01:20:34.229Z,19.72
2023-08-19T01:23:09.696Z,19.81
2023-08-19T01:25:45.624Z,19.90
2023-08-19T01:28:21.589Z,19.96
2023-08-19T01:30:55.343Z,19.96
2023-08-19T01:33:28.339Z,19.94
2023-08-19T01:36:12.883Z,19.94
2023-08-19T01:38:52.017Z,19.97
2023-08-19T01:41:30.148Z,20.00
2023-08-19T01:44:04.224Z,20.02
2023-08-19T01:46:36.943Z,20.00
2023-08-19T01:49:09.904Z,19.96
2023-08-19T01:51:45.298Z,19.96
2023-08-19T01:54:18.059Z,19.98
2023-08-19T01:56:51.020Z,19.98
2023-08-19T01:59:23.941Z,19.97
2023-08-19T02:01:58.340Z,19.89
2023-08-19T02:04:31.044Z,19.89
2023-08-19T02:07:05.583Z,19.91
2023-08-19T02:09:38.338Z,19.88
2023-08-19T02:12:12.866Z,19.92
2023-08-19T02:14:45.883Z,19.98
2023-08-19T02:17:19.057Z,19.89
2023-08-19T02:19:52.336Z,19.85
2023-08-19T02:22:23.544Z,19.82
2023-08-19T02:24:57.097Z,19.81
2023-08-19T02:27:31.063Z,19.86
2023-08-19T02:30:03.816Z,19.91
2023-08-19T02:32:36.510Z,19.91
2023-08-19T02:35:10.272Z,19.91
2023-08-19T02:37:43.666Z,19.94
2023-08-19T02:40:16.381Z,19.99
2023-08-19T02:42:49.544Z,20.01
2023-08-19T02:45:23.736Z,20.01
2023-08-19T02:47:57.207Z,19.92
2023-08-19T02:50:29.898Z,19.80
2023-08-19T02:53:03.379Z,19.81
2023-08-19T02:55:36.216Z,19.79
2023-08-19T02:58:09.588Z,19.81
2023-08-19T03:00:44.368Z,19.79
2023-08-19T03:03:17.465Z,19.78
2023-08-19T03:05:48.275Z,19.77
2023-08-19T03:08:21.214Z,19.70
2023-08-19T03:10:54.576Z,19.69
2023-08-19T03:13:27.499Z,19.60
2023-08-19T03:16:06.001Z,19.63
2023-08-19T03:18:39.058Z,19.60
2023-08-19T03:21:09.776Z,19.58
2023-08-19T03:23:43.459Z,19.55
2023-08-19T03:26:19.461Z,19.56
2023-08-19T03:28:52.918Z,19.61
2023-08-19T03:31:26.179Z,19.63
2023-08-19T03:34:00.706Z,19.58
2023-08-19T03:36:33.586Z,19.47
2023-08-19T03:39:06.579Z,19.46
2023-08-19T03:41:39.189Z,19.41
2023-08-19T03:44:12.859Z,19.38
2023-08-19T03:46:47.824Z,19.36
2023-08-19T03:49:24.021Z,19.32
2023-08-19T03:51:56.705Z,19.28
2023-08-19T03:54:29.594Z,19.23
2023-08-19T03:57:02.339Z,19.21
2023-08-19T03:59:35.538Z,19.16
2023-08-19T04:02:08.224Z,19.11
2023-08-19T04:04:58.745Z,19.11
2023-08-19T04:07:32.004Z,19.13
2023-08-19T04:10:07.341Z,19.18
2023-08-19T04:12:40.384Z,19.20
2023-08-19T04:15:14.658Z,19.25
2023-08-19T04:17:49.421Z,19.28
2023-08-19T04:20:22.460Z,19.31
2023-08-19T04:22:55.345Z,19.36
2023-08-19T04:25:28.084Z,19.39
2023-08-19T04:28:01.035Z,19.42
2023-08-19T04:30:33.936Z,19.38
2023-08-19T04:33:08.829Z,19.39
2023-08-19T04:35:42.215Z,19.44
2023-08-19T04:38:15.178Z,19.48
2023-08-19T04:40:48.394Z,19.58
2023-08-19T04:43:21.628Z,19.72
2023-08-19T04:45:56.153Z,19.76
2023-08-19T04:48:29.594Z,19.87
2023-08-19T04:51:03.220Z,19.87
2023-08-19T04:53:37.308Z,19.87
2023-08-19T04:56:10.523Z,19.89
2023-08-19T04:58:41.381Z,19.96
2023-08-19T05:01:16.122Z,20.03
2023-08-19T05:03:49.825Z,20.14
2023-08-19T05:06:22.296Z,20.24
2023-08-19T05:08:55.177Z,20.27
2023-08-19T05:11:28.242Z,20.43
2023-08-19T05:14:05.340Z,20.61
2023-08-19T05:16:38.256Z,20.85
2023-08-19T05:19:20.626Z,21.08
2023-08-19T05:21:54.419Z,21.25
2023-08-19T05:24:27.137Z,21.27
2023-08-19T05:27:00.143Z,21.40
2023-08-19T05:29:34.617Z,21.68
2023-08-19T05:32:09.637Z,21.94
2023-08-19T05:34:42.662Z,22.19
2023-08-19T05:37:15.867Z,22.32
2023-08-19T05:39:46.550Z,22.43
2023-08-19T05:42:19.818Z,22.47
2023-08-19T05:44:52.663Z,22.43
2023-08-19T05:47:24.096Z,22.58
2023-08-19T05:49:56.898Z,22.68
2023-08-19T05:52:29.781Z,22.76
2023-08-19T05:55:03.095Z,22.93
2023-08-19T05:57:36.062Z,22.88
2023-08-19T06:00:11.576Z,22.91
2023-08-19T06:02:47.558Z,22.84
2023-08-19T06:05:18.633Z,23.11
2023-08-19T06:07:51.823Z,23.24
2023-08-19T06:10:25.346Z,23.44
2023-08-19T06:12:58.218Z,23.54
2023-08-19T06:15:31.566Z,23.68
2023-08-19T06:18:04.812Z,23.86
2023-08-19T06:20:38.262Z,24.13
2023-08-19T06:23:11.380Z,24.38
2023-08-19T06:25:42.460Z,24.58
2023-08-19T06:28:15.499Z,24.65
2023-08-19T06:30:47.152Z,24.67
2023-08-19T06:33:21.246Z,24.78
2023-08-19T06:35:56.065Z,25.00
2023-08-19T06:38:32.237Z,25.28
2023-08-19T06:41:07.992Z,25.54
2023-08-19T06:43:44.564Z,25.72
2023-08-19T06:46:18.452Z,25.87
2023-08-19T06:48:53.397Z,26.05
2023-08-19T06:51:28.298Z,26.26
2023-08-19T06:54:02.464Z,26.32
2023-08-19T06:56:40.457Z,26.43
2023-08-19T06:59:20.465Z,26.55
2023-08-19T07:01:59.142Z,26.69
2023-08-19T07:04:33.220Z,26.79
2023-08-19T07:07:07.520Z,26.92
2023-08-19T07:09:41.918Z,27.01
2023-08-19T07:12:18.499Z,26.92
2023-08-19T07:14:52.657Z,26.96
2023-08-19T07:17:31.719Z,27.09
2023-08-19T07:20:07.138Z,27.18
2023-08-19T07:22:44.738Z,27.37
2023-08-19T07:25:18.705Z,27.53
2023-08-19T07:27:53.863Z,27.59
2023-08-19T07:30:29.606Z,27.65
2023-08-19T07:33:05.964Z,27.62
2023-08-19T07:35:40.178Z,27.81
2023-08-19T07:38:13.257Z,27.98
2023-08-19T07:40:46.337Z,28.05
2023-08-19T07:43:19.460Z,28.17
2023-08-19T07:45:52.471Z,28.46
2023-08-19T07:48:25.618Z,28.66
2023-08-19T07:50:58.703Z,28.76
2023-08-19T07:53:31.577Z,28.71
2023-08-19T07:56:04.622Z,28.60
2023-08-19T07:58:39.454Z,28.64
2023-08-19T08:01:13.676Z,28.59
2023-08-19T08:03:46.776Z,28.68
2023-08-19T08:06:20.223Z,28.88
2023-08-19T08:08:53.219Z,28.95
2023-08-19T08:11:26.300Z,29.06
2023-08-19T08:13:59.350Z,29.27
2023-08-19T08:16:32.713Z,29.31
2023-08-19T08:19:05.862Z,29.37
2023-08-19T08:21:38.904Z,29.45
2023-08-19T08:24:12.301Z,29.61
2023-08-19T08:26:45.460Z,29.72
2023-08-19T08:29:19.060Z,29.70
2023-08-19T08:31:52.266Z,29.81
2023-08-19T08:34:25.066Z,29.90
2023-08-19T08:36:58.226Z,30.04
2023-08-19T08:39:31.503Z,30.17
2023-08-19T08:42:05.793Z,30.16
2023-08-19T08:44:41.586Z,30.20
2023-08-19T08:47:16.260Z,30.24
2023-08-19T08:49:49.541Z,29.94
2023-08-19T08:52:23.179Z,29.94
2023-08-19T08:54:57.540Z,29.93
2023-08-19T08:57:31.268Z,29.83
2023-08-19T09:00:06.578Z,29.99
2023-08-19T09:02:41.317Z,30.01
2023-08-19T09:05:16.819Z,30.11
2023-08-19T09:07:55.156Z,30.19
2023-08-19T09:10:30.340Z,30.21
2023-08-19T09:13:05.978Z,30.26
2023-08-19T09:15:38.925Z,30.38
2023-08-19T09:18:12.618Z,30.34
2023-08-19T09:20:46.858Z,30.19
2023-08-19T09:23:20.105Z,30.07
2023-08-19T09:25:53.065Z,30.01
2023-08-19T09:28:26.714Z,29.96
2023-08-19T09:30:59.761Z,29.91
2023-08-19T09:33:32.776Z,29.85
2023-08-19T09:36:05.859Z,29.75
2023-08-19T09:38:38.618Z,29.88
2023-08-19T09:41:11.818Z,29.95
2023-08-19T09:43:44.864Z,29.85
2023-08-19T09:46:18.989Z,29.66
2023-08-19T09:48:57.718Z,29.67
2023-08-19T09:51:31.568Z,29.91
2023-08-19T09:54:12.877Z,30.10
2023-08-19T09:56:55.177Z,30.16
2023-08-19T09:59:29.028Z,30.31
2023-08-19T10:02:02.933Z,30.47
2023-08-19T10:04:37.576Z,30.25
2023-08-19T10:07:17.417Z,30.18
2023-08-19T10:09:52.207Z,30.24
2023-08-19T10:12:27.056Z,30.41
2023-08-19T10:15:02.616Z,30.27
2023-08-19T10:17:38.032Z,30.38
2023-08-19T10:20:16.740Z,30.54
2023-08-19T10:22:52.818Z,30.62
2023-08-19T10:25:26.949Z,30.75
2023-08-19T10:28:10.776Z,30.86
2023-08-19T10:30:44.835Z,31.08
2023-08-19T10:33:37.697Z,31.32
2023-08-19T10:36:10.142Z,31.55
2023-08-19T10:38:50.781Z,31.56
2023-08-19T10:41:31.980Z,31.65
2023-08-19T10:44:07.259Z,31.83
2023-08-19T10:46:41.941Z,31.90
2023-08-19T10:49:17.578Z,31.85
2023-08-19T10:51:56.336Z,31.91
2023-08-19T10:54:36.823Z,31.73
2023-08-19T10:57:16.352Z,31.57
2023-08-19T10:59:50.418Z,31.48
2023-08-19T11:02:23.469Z,31.32
2023-08-19T11:04:56.705Z,31.39
2023-08-19T11:07:30.375Z,31.19
2023-08-19T11:10:03.316Z,31.20
2023-08-19T11:12:36.420Z,31.19
2023-08-19T11:15:11.658Z,31.37
2023-08-19T11:17:44.846Z,31.43
2023-08-19T11:20:19.426Z,31.31
2023-08-19T11:22:54.497Z,31.27
2023-08-19T11:25:36.723Z,31.16
2023-08-19T11:28:10.544Z,31.12
2023-08-19T11:30:44.617Z,30.88
2023-08-19T11:33:23.382Z,30.96
2023-08-19T11:35:57.855Z,31.33
2023-08-19T11:38:30.901Z,31.57
2023-08-19T11:41:03.863Z,31.83
2023-08-19T11:43:47.712Z,31.85
2023-08-19T11:46:21.036Z,31.76
2023-08-19T11:48:54.099Z,31.69
2023-08-19T11:51:27.704Z,31.66
2023-08-19T11:54:07.617Z,31.63
2023-08-19T11:56:54.264Z,31.60
2023-08-19T11:59:35.258Z,31.58
2023-08-19T12:02:10.057Z,31.50
2023-08-19T12:04:42.954Z,31.49
2023-08-19T12:07:16.064Z,31.43
2023-08-19T12:09:51.377Z,31.24
2023-08-19T12:12:24.063Z,31.18
2023-08-19T12:14:59.696Z,31.04
2023-08-19T12:17:33.719Z,30.75
2023-08-19T12:20:49.059Z,30.27
2023-08-19T12:23:28.418Z,29.84
2023-08-19T12:26:02.596Z,29.51
2023-08-19T12:28:35.336Z,29.32
2023-08-19T12:31:08.202Z,29.21
2023-08-19T12:33:42.223Z,29.06
2023-08-19T12:36:19.724Z,28.99
2023-08-19T12:38:53.019Z,28.90
2023-08-19T12:41:26.177Z,28.78
2023-08-19T12:43:58.895Z,28.65
2023-08-19T12:46:35.423Z,28.53
2023-08-19T12:49:08.505Z,28.48
2023-08-19T12:51:42.062Z,28.53
2023-08-19T12:54:15.737Z,28.57
2023-08-19T12:56:49.173Z,28.40
2023-08-19T12:59:21.977Z,28.17
2023-08-19T13:01:54.856Z,28.06
2023-08-19T13:04:27.561Z,28.02
2023-08-19T13:07:02.258Z,28.01
2023-08-19T13:09:34.946Z,28.23
2023-08-19T13:12:10.506Z,28.39
2023-08-19T13:14:43.267Z,28.65
2023-08-19T13:17:16.863Z,28.93
2023-08-19T13:19:50.058Z,29.12
2023-08-19T13:22:24.582Z,29.36
2023-08-19T13:24:57.857Z,29.66
2023-08-19T13:27:31.939Z,29.92
2023-08-19T13:30:07.385Z,30.18
2023-08-19T13:32:40.748Z,30.45
2023-08-19T13:35:14.345Z,30.58
2023-08-19T13:37:47.537Z,30.60
2023-08-19T13:40:20.104Z,30.72
2023-08-19T13:42:53.017Z,30.88
2023-08-19T13:45:26.361Z,31.05
2023-08-19T13:48:12.274Z,31.22
2023-08-19T13:50:48.174Z,31.40
2023-08-19T13:53:21.619Z,31.54
2023-08-19T13:55:54.178Z,31.57
2023-08-19T13:58:27.259Z,31.57
2023-08-19T14:01:01.490Z,31.64
2023-08-19T14:03:34.556Z,31.74
2023-08-19T14:06:08.545Z,31.87
2023-08-19T14:08:41.668Z,31.90
2023-08-19T14:11:14.454Z,31.88
2023-08-19T14:13:47.539Z,31.94
2023-08-19T14:16:20.398Z,32.07
2023-08-19T14:18:54.271Z,32.21
2023-08-19T14:21:27.499Z,32.26
2023-08-19T14:24:00.592Z,32.27
2023-08-19T14:26:33.659Z,32.30
2023-08-19T14:29:06.818Z,32.15
2023-08-19T14:31:39.567Z,32.10
2023-08-19T14:34:12.745Z,31.83
2023-08-19T14:36:45.620Z,31.66
2023-08-19T14:39:18.898Z,31.49
2023-08-19T14:41:51.738Z,31.32
2023-08-19T14:44:24.749Z,31.08
2023-08-19T14:46:57.309Z,30.82
2023-08-19T14:49:30.868Z,30.53
2023-08-19T14:52:06.459Z,30.25
2023-08-19T14:54:39.698Z,30.11
2023-08-19T14:57:12.699Z,29.95
2023-08-19T14:59:47.819Z,29.83
2023-08-19T15:02:20.883Z,29.72
2023-08-19T15:04:55.538Z,29.55
2023-08-19T15:07:28.495Z,29.39
2023-08-19T15:10:01.358Z,29.27
2023-08-19T15:12:34.101Z,29.24
2023-08-19T15:15:07.641Z,29.24
2023-08-19T15:17:40.648Z,29.27
2023-08-19T15:20:14.858Z,29.22
2023-08-19T15:22:47.831Z,29.25
2023-08-19T15:25:22.184Z,29.24
2023-08-19T15:27:54.866Z,29.26
2023-08-19T15:30:27.778Z,29.23
2023-08-19T15:33:01.297Z,29.21
2023-08-19T15:35:34.062Z,29.23
2023-08-19T15:38:07.339Z,29.17
2023-08-19T15:40:41.539Z,29.17
2023-08-19T15:43:14.218Z,29.19
2023-08-19T15:45:47.084Z,29.10
2023-08-19T15:48:21.473Z,28.94
2023-08-19T15:50:55.985Z,28.82
2023-08-19T15:53:28.844Z,28.83
2023-08-19T15:56:01.664Z,28.83
2023-08-19T15:58:35.243Z,28.81
2023-08-19T16:01:09.246Z,28.83
2023-08-19T16:03:42.180Z,28.86
2023-08-19T16:06:15.219Z,28.81
2023-08-19T16:08:48.530Z,28.69
2023-08-19T16:11:21.656Z,28.59
2023-08-19T16:13:54.587Z,28.59
2023-08-19T16:16:27.881Z,28.60
2023-08-19T16:19:01.027Z,28.52
2023-08-19T16:21:34.222Z,28.42
2023-08-19T16:24:07.662Z,28.21
2023-08-19T16:26:40.738Z,27.98
2023-08-19T16:29:13.619Z,27.67
2023-08-19T16:31:46.580Z,27.59
2023-08-19T16:34:21.064Z,27.52
2023-08-19T16:36:53.897Z,27.38
2023-08-19T16:39:27.305Z,27.26
2023-08-19T16:42:00.358Z,27.11
2023-08-19T16:44:33.188Z,27.07
2023-08-19T16:47:06.337Z,26.96
2023-08-19T16:49:39.138Z,26.91
2023-08-19T16:52:12.459Z,26.95
2023-08-19T16:54:45.059Z,26.89
2023-08-19T16:57:18.058Z,26.86
2023-08-19T16:59:51.266Z,26.76
2023-08-19T17:02:24.291Z,26.71
2023-08-19T17:04:57.103Z,26.65
2023-08-19T17:07:29.832Z,26.63
2023-08-19T17:10:04.137Z,26.51
2023-08-19T17:12:37.103Z,26.46
2023-08-19T17:15:08.827Z,26.31
2023-08-19T17:17:41.794Z,26.21
2023-08-19T17:20:17.178Z,26.13
2023-08-19T17:22:50.297Z,25.94
2023-08-19T17:25:23.178Z,25.81
2023-08-19T17:27:56.079Z,25.65
2023-08-19T17:30:30.886Z,25.69
2023-08-19T17:33:05.285Z,25.67
2023-08-19T17:35:39.902Z,25.66
2023-08-19T17:38:15.593Z,25.69
2023-08-19T17:40:48.976Z,25.76
2023-08-19T17:43:22.425Z,25.81
2023-08-19T17:45:59.769Z,25.79
2023-08-19T17:48:34.699Z,25.80
2023-08-19T17:51:07.536Z,25.74
2023-08-19T17:53:41.784Z,25.69
2023-08-19T17:56:14.600Z,25.74
2023-08-19T17:58:47.736Z,25.73
2023-08-19T18:01:20.922Z,25.74
2023-08-19T18:03:54.088Z,25.56
2023-08-19T18:06:26.858Z,25.20
2023-08-19T18:08:58.536Z,25.00
2023-08-19T18:11:31.307Z,24.80
2023-08-19T18:14:02.176Z,24.75
2023-08-19T18:16:34.817Z,24.81
2023-08-19T18:19:10.898Z,24.79
2023-08-19T18:21:43.669Z,24.81
2023-08-19T18:24:16.857Z,24.74
2023-08-19T18:26:50.497Z,24.82
2023-08-19T18:29:23.939Z,24.80
2023-08-19T18:31:59.418Z,24.58
2023-08-19T18:34:35.338Z,24.48
2023-08-19T18:37:11.380Z,24.51
2023-08-19T18:39:45.060Z,24.52
2023-08-19T18:42:17.737Z,24.48
2023-08-19T18:44:50.777Z,24.40
2023-08-19T18:47:24.458Z,24.38
2023-08-19T18:49:59.784Z,24.21
2023-08-19T18:52:36.832Z,23.99
2023-08-19T18:55:13.342Z,23.90
2023-08-19T18:57:57.890Z,23.82
2023-08-19T19:00:31.512Z,23.94
2023-08-19T19:03:05.287Z,24.00
2023-08-19T19:05:38.407Z,24.06
2023-08-19T19:08:11.988Z,24.02
2023-08-19T19:10:44.738Z,23.92
2023-08-19T19:13:20.753Z,23.91
2023-08-19T19:15:54.950Z,23.90
2023-08-19T19:18:31.376Z,23.93
2023-08-19T19:21:09.835Z,23.97
2023-08-19T19:23:44.608Z,24.04
2023-08-19T19:26:21.863Z,23.96
2023-08-19T19:28:55.899Z,23.72
2023-08-19T19:31:29.856Z,23.63
2023-08-19T19:34:04.599Z,23.56
2023-08-19T19:36:40.414Z,23.48
2023-08-19T19:39:13.777Z,23.49
2023-08-19T19:41:47.185Z,23.51
2023-08-19T19:44:19.897Z,23.48
2023-08-19T19:46:52.658Z,23.38
2023-08-19T19:49:26.015Z,23.37
2023-08-19T19:51:59.023Z,23.36
2023-08-19T19:54:32.186Z,23.36
2023-08-19T19:57:07.026Z,23.38
2023-08-19T19:59:39.897Z,23.31
2023-08-19T20:02:12.949Z,23.27
2023-08-19T20:04:47.938Z,23.21
2023-08-19T20:07:26.752Z,23.27
2023-08-19T20:12:40.821Z,23.31
2023-08-19T20:15:14.458Z,23.31
2023-08-19T20:17:49.692Z,23.27
2023-08-19T20:20:22.776Z,23.29
2023-08-19T20:22:56.141Z,23.29
2023-08-19T20:25:30.782Z,23.31
2023-08-19T20:28:03.658Z,23.28
2023-08-19T20:30:40.001Z,23.26
2023-08-19T20:33:14.979Z,23.17
2023-08-19T20:35:47.819Z,23.18
2023-08-19T20:38:21.225Z,23.20
2023-08-19T20:40:54.103Z,23.22
2023-08-19T20:43:27.186Z,23.16
2023-08-19T20:45:58.439Z,23.02
2023-08-19T20:48:33.019Z,22.85
2023-08-19T20:51:07.635Z,22.81
2023-08-19T20:53:40.816Z,22.86
2023-08-19T20:56:13.496Z,22.88
2023-08-19T20:58:46.576Z,22.79
2023-08-19T21:01:17.423Z,22.71
2023-08-19T21:03:50.629Z,22.63
2023-08-19T21:06:24.235Z,22.70
2023-08-19T21:08:57.373Z,22.73
2023-08-19T21:11:30.134Z,22.57
2023-08-19T21:14:01.145Z,22.64
2023-08-19T21:16:33.775Z,22.49
2023-08-19T21:19:06.776Z,22.58
2023-08-19T21:21:39.749Z,22.53
2023-08-19T21:24:13.224Z,22.53
2023-08-19T21:26:47.775Z,22.46
2023-08-19T21:29:20.590Z,22.47
2023-08-19T21:31:54.858Z,22.45
2023-08-19T21:34:30.031Z,22.43
2023-08-19T21:37:02.816Z,22.43
2023-08-19T21:39:35.818Z,22.40
2023-08-19T21:42:06.751Z,22.37
2023-08-19T21:44:39.866Z,22.31
2023-08-19T21:47:10.701Z,22.28
2023-08-19T21:49:44.696Z,22.13
2023-08-19T21:52:17.755Z,22.03
2023-08-19T21:54:50.857Z,21.98
2023-08-19T21:57:21.819Z,21.99
2023-08-19T21:59:55.816Z,21.96
2023-08-19T22:02:28.703Z,21.96
2023-08-19T22:05:01.781Z,21.98
2023-08-19T22:07:33.049Z,22.01
2023-08-19T22:10:07.182Z,21.98
2023-08-19T22:12:40.063Z,22.01
2023-08-19T22:15:12.499Z,22.00
2023-08-19T22:17:45.191Z,21.92
2023-08-19T22:20:18.546Z,21.89
2023-08-19T22:22:53.473Z,21.92
2023-08-19T22:25:26.421Z,21.92
2023-08-19T22:27:59.227Z,21.89
2023-08-19T22:30:30.909Z,21.88
2023-08-19T22:33:03.802Z,21.85
2023-08-19T22:35:37.194Z,21.86
2023-08-19T22:38:10.143Z,21.85
2023-08-19T22:40:43.300Z,21.77
2023-08-19T22:43:15.942Z,21.66
2023-08-19T22:45:49.298Z,21.61
2023-08-19T22:48:22.200Z,21.62
2023-08-19T22:50:53.500Z,21.62
2023-08-19T22:53:26.420Z,21.54
2023-08-19T22:55:59.260Z,21.59
2023-08-19T22:58:32.221Z,21.61
2023-08-19T23:01:02.996Z,21.58
2023-08-19T23:03:36.547Z,21.52
2023-08-19T23:06:09.342Z,21.54
2023-08-19T23:08:42.255Z,21.54
2023-08-19T23:11:15.145Z,21.54
2023-08-19T23:13:50.268Z,21.52
2023-08-19T23:16:25.043Z,21.51
2023-08-19T23:18:57.781Z,21.49
2023-08-19T23:21:43.505Z,21.48
2023-08-19T23:24:18.697Z,21.42
2023-08-19T23:26:52.095Z,21.40
2023-08-19T23:29:25.700Z,21.41
2023-08-19T23:31:58.491Z,21.35
2023-08-19T23:34:31.228Z,21.37
2023-08-19T23:37:04.547Z,21.38
2023-08-19T23:39:37.296Z,21.37
2023-08-19T23:42:10.614Z,21.30
2023-08-19T23:44:43.216Z,21.18
2023-08-19T23:47:17.623Z,21.20
2023-08-19T23:49:51.505Z,21.20
2023-08-19T23:52:28.016Z,21.20
2023-08-19T23:55:02.259Z,21.19
2023-08-19T23:57:36.466Z,21.18
